sensor_id;sensor_type;location;lat;lon;timestamp;P1;durP1;ratioP1;P2;durP2;ratioP2
46815;SDS011;32787;53.316;8.670;2023-05-16T00:01:17;11.68;;;2.63;;
46815;SDS011;32787;53.316;8.670;2023-05-16T00:03:43;10.57;;;2.35;;
46815;SDS011;32787;53.316;8.670;2023-05-16T00:06:09;11.60;;;2.83;;
46815;SDS011;32787;53.316;8.670;2023-05-16T00:08:35;13.32;;;2.35;;
46815;SDS011;32787;53.316;8.670;2023-05-16T00:11:01;14.63;;;3.03;;
46815;SDS011;32787;53.316;8.670;2023-05-16T00:13:27;16.05;;;2.67;;
46815;SDS011;32787;53.316;8.670;2023-05-16T00:15:53;17.00;;;3.28;;
46815;SDS011;32787;53.316;8.670;2023-05-16T00:18:20;18.20;;;2.70;;
46815;SDS011;32787;53.316;8.670;2023-05-16T00:20:47;12.85;;;2.92;;
46815;SDS011;32787;53.316;8.670;2023-05-16T00:23:13;15.85;;;2.63;;
46815;SDS011;32787;53.316;8.670;2023-05-16T00:25:39;11.30;;;2.63;;
46815;SDS011;32787;53.316;8.670;2023-05-16T00:28:05;15.82;;;3.10;;
46815;SDS011;32787;53.316;8.670;2023-05-16T00:30:32;17.23;;;2.67;;
46815;SDS011;32787;53.316;8.670;2023-05-16T00:32:57;12.15;;;2.58;;
46815;SDS011;32787;53.316;8.670;2023-05-16T00:35:23;17.13;;;3.20;;
46815;SDS011;32787;53.316;8.670;2023-05-16T00:37:49;13.88;;;2.60;;
46815;SDS011;32787;53.316;8.670;2023-05-16T00:40:15;14.90;;;2.97;;
46815;SDS011;32787;53.316;8.670;2023-05-16T00:42:41;17.92;;;2.83;;
46815;SDS011;32787;53.316;8.670;2023-05-16T00:45:07;10.93;;;2.72;;
46815;SDS011;32787;53.316;8.670;2023-05-16T00:47:33;13.90;;;2.80;;
46815;SDS011;32787;53.316;8.670;2023-05-16T00:50:00;11.07;;;2.60;;
46815;SDS011;32787;53.316;8.670;2023-05-16T00:52:25;17.88;;;3.20;;
46815;SDS011;32787;53.316;8.670;2023-05-16T00:54:53;16.67;;;3.03;;
46815;SDS011;32787;53.316;8.670;2023-05-16T00:57:19;12.88;;;3.03;;
46815;SDS011;32787;53.316;8.670;2023-05-16T00:59:45;13.85;;;3.28;;
46815;SDS011;32787;53.316;8.670;2023-05-16T01:02:12;17.92;;;2.85;;
46815;SDS011;32787;53.316;8.670;2023-05-16T01:04:38;11.38;;;2.20;;
46815;SDS011;32787;53.316;8.670;2023-05-16T01:07:04;17.48;;;3.00;;
46815;SDS011;32787;53.316;8.670;2023-05-16T01:09:30;9.43;;;2.50;;
46815;SDS011;32787;53.316;8.670;2023-05-16T01:17:59;16.13;;;2.90;;
46815;SDS011;32787;53.316;8.670;2023-05-16T01:20:37;18.17;;;2.92;;
46815;SDS011;32787;53.316;8.670;2023-05-16T01:28:39;15.07;;;3.78;;
46815;SDS011;32787;53.316;8.670;2023-05-16T01:31:05;19.80;;;3.45;;
46815;SDS011;32787;53.316;8.670;2023-05-16T01:33:31;13.00;;;2.80;;
46815;SDS011;32787;53.316;8.670;2023-05-16T01:38:53;20.48;;;3.67;;
46815;SDS011;32787;53.316;8.670;2023-05-16T01:41:52;16.00;;;3.38;;
46815;SDS011;32787;53.316;8.670;2023-05-16T01:44:42;22.70;;;3.65;;
46815;SDS011;32787;53.316;8.670;2023-05-16T01:47:12;21.40;;;2.83;;
46815;SDS011;32787;53.316;8.670;2023-05-16T01:49:42;19.45;;;3.10;;
46815;SDS011;32787;53.316;8.670;2023-05-16T01:52:18;14.50;;;3.25;;
46815;SDS011;32787;53.316;8.670;2023-05-16T01:54:47;13.90;;;3.05;;
46815;SDS011;32787;53.316;8.670;2023-05-16T01:57:19;21.98;;;3.58;;
46815;SDS011;32787;53.316;8.670;2023-05-16T01:59:48;23.42;;;3.92;;
46815;SDS011;32787;53.316;8.670;2023-05-16T02:02:16;23.05;;;3.78;;
46815;SDS011;32787;53.316;8.670;2023-05-16T02:04:42;23.77;;;3.42;;
46815;SDS011;32787;53.316;8.670;2023-05-16T02:07:08;19.90;;;3.40;;
46815;SDS011;32787;53.316;8.670;2023-05-16T02:09:34;14.05;;;2.85;;
46815;SDS011;32787;53.316;8.670;2023-05-16T02:12:00;20.50;;;2.90;;
46815;SDS011;32787;53.316;8.670;2023-05-16T02:14:26;24.33;;;2.83;;
46815;SDS011;32787;53.316;8.670;2023-05-16T02:16:52;28.63;;;3.45;;
46815;SDS011;32787;53.316;8.670;2023-05-16T02:19:17;18.50;;;3.05;;
46815;SDS011;32787;53.316;8.670;2023-05-16T02:21:43;16.02;;;3.67;;
46815;SDS011;32787;53.316;8.670;2023-05-16T02:24:08;23.30;;;3.42;;
46815;SDS011;32787;53.316;8.670;2023-05-16T02:26:34;23.90;;;3.83;;
46815;SDS011;32787;53.316;8.670;2023-05-16T02:29:00;20.80;;;3.45;;
46815;SDS011;32787;53.316;8.670;2023-05-16T02:31:26;26.75;;;3.33;;
46815;SDS011;32787;53.316;8.670;2023-05-16T02:33:52;18.83;;;2.80;;
46815;SDS011;32787;53.316;8.670;2023-05-16T02:36:18;17.67;;;2.90;;
46815;SDS011;32787;53.316;8.670;2023-05-16T02:38:45;21.67;;;3.97;;
46815;SDS011;32787;53.316;8.670;2023-05-16T02:41:11;19.38;;;3.10;;
46815;SDS011;32787;53.316;8.670;2023-05-16T02:43:36;20.98;;;2.97;;
46815;SDS011;32787;53.316;8.670;2023-05-16T02:46:18;25.08;;;2.88;;
46815;SDS011;32787;53.316;8.670;2023-05-16T02:48:48;21.48;;;3.03;;
46815;SDS011;32787;53.316;8.670;2023-05-16T02:51:15;18.17;;;3.00;;
46815;SDS011;32787;53.316;8.670;2023-05-16T02:53:41;22.13;;;3.75;;
46815;SDS011;32787;53.316;8.670;2023-05-16T02:56:06;21.73;;;3.58;;
46815;SDS011;32787;53.316;8.670;2023-05-16T02:58:32;17.58;;;3.00;;
46815;SDS011;32787;53.316;8.670;2023-05-16T03:00:58;21.13;;;2.88;;
46815;SDS011;32787;53.316;8.670;2023-05-16T03:03:23;22.85;;;3.58;;
46815;SDS011;32787;53.316;8.670;2023-05-16T03:05:49;19.33;;;3.30;;
46815;SDS011;32787;53.316;8.670;2023-05-16T03:08:15;16.40;;;2.67;;
46815;SDS011;32787;53.316;8.670;2023-05-16T03:10:41;13.82;;;2.65;;
46815;SDS011;32787;53.316;8.670;2023-05-16T03:13:07;17.45;;;2.30;;
46815;SDS011;32787;53.316;8.670;2023-05-16T03:15:33;17.23;;;2.97;;
46815;SDS011;32787;53.316;8.670;2023-05-16T03:17:58;11.95;;;2.53;;
46815;SDS011;32787;53.316;8.670;2023-05-16T03:20:24;17.73;;;3.22;;
46815;SDS011;32787;53.316;8.670;2023-05-16T03:22:50;19.60;;;2.83;;
46815;SDS011;32787;53.316;8.670;2023-05-16T03:25:15;24.13;;;2.63;;
46815;SDS011;32787;53.316;8.670;2023-05-16T03:27:41;13.98;;;2.45;;
46815;SDS011;32787;53.316;8.670;2023-05-16T03:30:07;19.63;;;2.60;;
46815;SDS011;32787;53.316;8.670;2023-05-16T03:32:33;16.67;;;2.92;;
46815;SDS011;32787;53.316;8.670;2023-05-16T03:34:59;13.65;;;2.80;;
46815;SDS011;32787;53.316;8.670;2023-05-16T03:37:25;15.85;;;2.70;;
46815;SDS011;32787;53.316;8.670;2023-05-16T03:39:51;11.57;;;2.13;;
46815;SDS011;32787;53.316;8.670;2023-05-16T03:42:16;18.63;;;2.75;;
46815;SDS011;32787;53.316;8.670;2023-05-16T03:44:42;15.35;;;2.03;;
46815;SDS011;32787;53.316;8.670;2023-05-16T03:47:08;16.55;;;2.38;;
46815;SDS011;32787;53.316;8.670;2023-05-16T03:49:34;21.13;;;3.63;;
46815;SDS011;32787;53.316;8.670;2023-05-16T03:52:01;12.15;;;2.13;;
46815;SDS011;32787;53.316;8.670;2023-05-16T03:54:30;22.55;;;3.00;;
46815;SDS011;32787;53.316;8.670;2023-05-16T03:56:55;21.00;;;2.80;;
46815;SDS011;32787;53.316;8.670;2023-05-16T03:59:21;12.82;;;2.30;;
46815;SDS011;32787;53.316;8.670;2023-05-16T04:01:46;20.77;;;2.22;;
46815;SDS011;32787;53.316;8.670;2023-05-16T04:04:12;12.52;;;2.20;;
46815;SDS011;32787;53.316;8.670;2023-05-16T04:06:38;17.85;;;2.40;;
46815;SDS011;32787;53.316;8.670;2023-05-16T04:09:04;19.88;;;2.63;;
46815;SDS011;32787;53.316;8.670;2023-05-16T04:11:33;13.07;;;2.13;;
46815;SDS011;32787;53.316;8.670;2023-05-16T04:14:00;15.15;;;2.33;;
46815;SDS011;32787;53.316;8.670;2023-05-16T04:16:26;16.20;;;2.45;;
46815;SDS011;32787;53.316;8.670;2023-05-16T04:18:51;16.42;;;2.53;;
46815;SDS011;32787;53.316;8.670;2023-05-16T04:21:17;15.75;;;2.60;;
46815;SDS011;32787;53.316;8.670;2023-05-16T04:23:42;19.00;;;2.60;;
46815;SDS011;32787;53.316;8.670;2023-05-16T04:26:08;17.58;;;2.70;;
46815;SDS011;32787;53.316;8.670;2023-05-16T04:28:34;20.92;;;3.78;;
46815;SDS011;32787;53.316;8.670;2023-05-16T04:31:00;14.43;;;2.40;;
46815;SDS011;32787;53.316;8.670;2023-05-16T04:33:26;14.75;;;2.40;;
46815;SDS011;32787;53.316;8.670;2023-05-16T04:35:51;17.55;;;2.35;;
46815;SDS011;32787;53.316;8.670;2023-05-16T04:38:18;19.17;;;2.67;;
46815;SDS011;32787;53.316;8.670;2023-05-16T04:40:44;22.73;;;2.75;;
46815;SDS011;32787;53.316;8.670;2023-05-16T04:43:10;14.43;;;2.40;;
46815;SDS011;32787;53.316;8.670;2023-05-16T04:45:35;17.35;;;2.28;;
46815;SDS011;32787;53.316;8.670;2023-05-16T04:48:01;16.08;;;2.53;;
46815;SDS011;32787;53.316;8.670;2023-05-16T04:50:27;14.05;;;2.40;;
46815;SDS011;32787;53.316;8.670;2023-05-16T04:52:52;21.15;;;3.05;;
46815;SDS011;32787;53.316;8.670;2023-05-16T04:55:18;15.18;;;2.60;;
46815;SDS011;32787;53.316;8.670;2023-05-16T04:57:43;12.57;;;2.15;;
46815;SDS011;32787;53.316;8.670;2023-05-16T05:00:09;20.38;;;2.70;;
46815;SDS011;32787;53.316;8.670;2023-05-16T05:02:36;14.15;;;2.20;;
46815;SDS011;32787;53.316;8.670;2023-05-16T05:05:03;14.18;;;2.50;;
46815;SDS011;32787;53.316;8.670;2023-05-16T05:07:29;17.75;;;2.45;;
46815;SDS011;32787;53.316;8.670;2023-05-16T05:09:56;13.30;;;2.40;;
46815;SDS011;32787;53.316;8.670;2023-05-16T05:12:21;13.85;;;2.15;;
46815;SDS011;32787;53.316;8.670;2023-05-16T05:14:47;9.77;;;2.28;;
46815;SDS011;32787;53.316;8.670;2023-05-16T05:17:13;17.60;;;2.38;;
46815;SDS011;32787;53.316;8.670;2023-05-16T05:19:38;19.13;;;2.25;;
46815;SDS011;32787;53.316;8.670;2023-05-16T05:22:04;18.60;;;2.55;;
46815;SDS011;32787;53.316;8.670;2023-05-16T05:24:29;11.30;;;2.22;;
46815;SDS011;32787;53.316;8.670;2023-05-16T05:26:55;10.63;;;1.83;;
46815;SDS011;32787;53.316;8.670;2023-05-16T05:29:21;12.38;;;1.70;;
46815;SDS011;32787;53.316;8.670;2023-05-16T05:31:47;14.13;;;1.77;;
46815;SDS011;32787;53.316;8.670;2023-05-16T05:34:12;13.88;;;1.95;;
46815;SDS011;32787;53.316;8.670;2023-05-16T05:36:38;10.93;;;1.88;;
46815;SDS011;32787;53.316;8.670;2023-05-16T05:39:04;16.20;;;2.22;;
46815;SDS011;32787;53.316;8.670;2023-05-16T05:41:30;16.63;;;2.40;;
46815;SDS011;32787;53.316;8.670;2023-05-16T05:43:55;13.55;;;1.92;;
46815;SDS011;32787;53.316;8.670;2023-05-16T05:46:21;16.13;;;2.45;;
46815;SDS011;32787;53.316;8.670;2023-05-16T05:48:48;13.05;;;2.30;;
46815;SDS011;32787;53.316;8.670;2023-05-16T05:51:14;13.75;;;2.75;;
46815;SDS011;32787;53.316;8.670;2023-05-16T05:53:40;13.65;;;2.40;;
46815;SDS011;32787;53.316;8.670;2023-05-16T05:56:06;14.10;;;2.40;;
46815;SDS011;32787;53.316;8.670;2023-05-16T05:58:31;10.73;;;1.85;;
46815;SDS011;32787;53.316;8.670;2023-05-16T06:00:57;20.38;;;2.30;;
46815;SDS011;32787;53.316;8.670;2023-05-16T06:03:22;21.25;;;2.47;;
46815;SDS011;32787;53.316;8.670;2023-05-16T06:05:48;22.02;;;2.28;;
46815;SDS011;32787;53.316;8.670;2023-05-16T06:08:14;14.68;;;2.42;;
46815;SDS011;32787;53.316;8.670;2023-05-16T06:10:39;17.27;;;2.28;;
46815;SDS011;32787;53.316;8.670;2023-05-16T06:13:05;14.02;;;2.20;;
46815;SDS011;32787;53.316;8.670;2023-05-16T06:15:30;11.55;;;2.10;;
46815;SDS011;32787;53.316;8.670;2023-05-16T06:17:56;11.38;;;2.35;;
46815;SDS011;32787;53.316;8.670;2023-05-16T06:20:22;18.13;;;2.67;;
46815;SDS011;32787;53.316;8.670;2023-05-16T06:22:47;17.73;;;2.55;;
46815;SDS011;32787;53.316;8.670;2023-05-16T06:25:13;15.18;;;2.63;;
46815;SDS011;32787;53.316;8.670;2023-05-16T06:27:39;12.20;;;2.45;;
46815;SDS011;32787;53.316;8.670;2023-05-16T06:30:06;15.27;;;2.30;;
46815;SDS011;32787;53.316;8.670;2023-05-16T06:32:32;11.40;;;1.90;;
46815;SDS011;32787;53.316;8.670;2023-05-16T06:34:58;11.05;;;2.00;;
46815;SDS011;32787;53.316;8.670;2023-05-16T06:37:24;13.95;;;2.03;;
46815;SDS011;32787;53.316;8.670;2023-05-16T06:39:50;12.88;;;2.00;;
46815;SDS011;32787;53.316;8.670;2023-05-16T06:42:16;15.73;;;2.47;;
46815;SDS011;32787;53.316;8.670;2023-05-16T06:44:41;20.17;;;2.67;;
46815;SDS011;32787;53.316;8.670;2023-05-16T06:47:07;14.27;;;1.90;;
46815;SDS011;32787;53.316;8.670;2023-05-16T06:49:33;14.82;;;2.13;;
46815;SDS011;32787;53.316;8.670;2023-05-16T06:51:58;12.95;;;2.00;;
46815;SDS011;32787;53.316;8.670;2023-05-16T06:54:24;15.35;;;2.05;;
46815;SDS011;32787;53.316;8.670;2023-05-16T06:56:50;12.73;;;2.13;;
46815;SDS011;32787;53.316;8.670;2023-05-16T06:59:15;13.65;;;2.05;;
46815;SDS011;32787;53.316;8.670;2023-05-16T07:01:41;13.52;;;2.15;;
46815;SDS011;32787;53.316;8.670;2023-05-16T07:04:07;12.82;;;2.03;;
46815;SDS011;32787;53.316;8.670;2023-05-16T07:06:32;14.02;;;1.52;;
46815;SDS011;32787;53.316;8.670;2023-05-16T07:08:58;11.68;;;1.70;;
46815;SDS011;32787;53.316;8.670;2023-05-16T07:11:23;13.18;;;1.60;;
46815;SDS011;32787;53.316;8.670;2023-05-16T07:13:49;9.93;;;1.40;;
46815;SDS011;32787;53.316;8.670;2023-05-16T07:16:15;10.02;;;1.35;;
46815;SDS011;32787;53.316;8.670;2023-05-16T07:18:40;10.50;;;1.67;;
46815;SDS011;32787;53.316;8.670;2023-05-16T07:21:07;11.60;;;1.42;;
46815;SDS011;32787;53.316;8.670;2023-05-16T07:23:32;9.90;;;1.60;;
46815;SDS011;32787;53.316;8.670;2023-05-16T07:25:58;9.70;;;2.03;;
46815;SDS011;32787;53.316;8.670;2023-05-16T07:28:23;12.15;;;1.55;;
46815;SDS011;32787;53.316;8.670;2023-05-16T07:30:49;8.23;;;1.55;;
46815;SDS011;32787;53.316;8.670;2023-05-16T07:33:15;11.55;;;2.20;;
46815;SDS011;32787;53.316;8.670;2023-05-16T07:35:41;10.27;;;1.58;;
46815;SDS011;32787;53.316;8.670;2023-05-16T07:38:06;10.45;;;1.70;;
46815;SDS011;32787;53.316;8.670;2023-05-16T07:40:32;14.65;;;1.92;;
46815;SDS011;32787;53.316;8.670;2023-05-16T07:42:58;8.85;;;1.50;;
46815;SDS011;32787;53.316;8.670;2023-05-16T07:45:24;13.13;;;1.48;;
46815;SDS011;32787;53.316;8.670;2023-05-16T07:47:49;9.43;;;1.85;;
46815;SDS011;32787;53.316;8.670;2023-05-16T07:50:15;17.20;;;3.33;;
46815;SDS011;32787;53.316;8.670;2023-05-16T07:52:40;34.13;;;7.65;;
46815;SDS011;32787;53.316;8.670;2023-05-16T07:55:06;18.15;;;2.78;;
46815;SDS011;32787;53.316;8.670;2023-05-16T07:57:32;11.02;;;2.20;;
46815;SDS011;32787;53.316;8.670;2023-05-16T07:59:58;10.13;;;1.60;;
46815;SDS011;32787;53.316;8.670;2023-05-16T08:02:23;12.40;;;1.50;;
46815;SDS011;32787;53.316;8.670;2023-05-16T08:04:54;9.85;;;1.63;;
46815;SDS011;32787;53.316;8.670;2023-05-16T08:07:20;12.68;;;1.70;;
46815;SDS011;32787;53.316;8.670;2023-05-16T08:09:46;16.02;;;2.22;;
46815;SDS011;32787;53.316;8.670;2023-05-16T08:12:12;8.82;;;1.83;;
46815;SDS011;32787;53.316;8.670;2023-05-16T08:14:37;12.07;;;1.65;;
46815;SDS011;32787;53.316;8.670;2023-05-16T08:17:03;16.23;;;1.92;;
46815;SDS011;32787;53.316;8.670;2023-05-16T08:19:29;12.73;;;1.83;;
46815;SDS011;32787;53.316;8.670;2023-05-16T08:21:56;9.63;;;1.83;;
46815;SDS011;32787;53.316;8.670;2023-05-16T08:24:22;8.77;;;1.60;;
46815;SDS011;32787;53.316;8.670;2023-05-16T08:26:48;10.68;;;1.80;;
46815;SDS011;32787;53.316;8.670;2023-05-16T08:29:14;14.18;;;1.58;;
46815;SDS011;32787;53.316;8.670;2023-05-16T08:31:40;13.13;;;2.10;;
46815;SDS011;32787;53.316;8.670;2023-05-16T08:34:05;16.08;;;1.98;;
46815;SDS011;32787;53.316;8.670;2023-05-16T08:36:31;12.32;;;1.42;;
46815;SDS011;32787;53.316;8.670;2023-05-16T08:38:59;13.07;;;2.40;;
46815;SDS011;32787;53.316;8.670;2023-05-16T08:41:25;11.82;;;1.73;;
46815;SDS011;32787;53.316;8.670;2023-05-16T08:43:51;10.35;;;1.35;;
46815;SDS011;32787;53.316;8.670;2023-05-16T08:46:20;8.88;;;1.50;;
46815;SDS011;32787;53.316;8.670;2023-05-16T08:48:49;10.10;;;1.60;;
46815;SDS011;32787;53.316;8.670;2023-05-16T08:51:17;9.85;;;1.67;;
46815;SDS011;32787;53.316;8.670;2023-05-16T08:53:44;11.50;;;1.90;;
46815;SDS011;32787;53.316;8.670;2023-05-16T08:56:16;11.38;;;1.83;;
46815;SDS011;32787;53.316;8.670;2023-05-16T08:58:42;9.13;;;1.70;;
46815;SDS011;32787;53.316;8.670;2023-05-16T09:01:08;8.20;;;1.67;;
46815;SDS011;32787;53.316;8.670;2023-05-16T09:03:35;7.07;;;1.00;;
46815;SDS011;32787;53.316;8.670;2023-05-16T09:06:03;11.35;;;1.52;;
46815;SDS011;32787;53.316;8.670;2023-05-16T09:08:30;9.77;;;1.77;;
46815;SDS011;32787;53.316;8.670;2023-05-16T09:10:55;10.55;;;1.65;;
46815;SDS011;32787;53.316;8.670;2023-05-16T09:13:21;11.18;;;1.73;;
46815;SDS011;32787;53.316;8.670;2023-05-16T09:16:06;11.27;;;1.63;;
46815;SDS011;32787;53.316;8.670;2023-05-16T09:18:37;10.13;;;1.50;;
46815;SDS011;32787;53.316;8.670;2023-05-16T09:21:07;9.38;;;1.77;;
46815;SDS011;32787;53.316;8.670;2023-05-16T09:23:34;12.70;;;2.20;;
46815;SDS011;32787;53.316;8.670;2023-05-16T09:26:01;12.35;;;2.10;;
46815;SDS011;32787;53.316;8.670;2023-05-16T09:28:27;11.23;;;1.65;;
46815;SDS011;32787;53.316;8.670;2023-05-16T09:30:54;9.82;;;1.48;;
46815;SDS011;32787;53.316;8.670;2023-05-16T09:33:23;11.57;;;1.63;;
46815;SDS011;32787;53.316;8.670;2023-05-16T09:35:54;6.47;;;1.10;;
46815;SDS011;32787;53.316;8.670;2023-05-16T09:38:21;10.27;;;1.55;;
46815;SDS011;32787;53.316;8.670;2023-05-16T09:40:46;8.23;;;1.25;;
46815;SDS011;32787;53.316;8.670;2023-05-16T09:43:15;9.40;;;1.70;;
46815;SDS011;32787;53.316;8.670;2023-05-16T09:45:44;6.15;;;1.23;;
46815;SDS011;32787;53.316;8.670;2023-05-16T09:48:11;7.50;;;1.50;;
46815;SDS011;32787;53.316;8.670;2023-05-16T09:50:39;10.68;;;1.55;;
46815;SDS011;32787;53.316;8.670;2023-05-16T09:53:07;9.43;;;1.50;;
46815;SDS011;32787;53.316;8.670;2023-05-16T09:55:33;8.25;;;1.30;;
46815;SDS011;32787;53.316;8.670;2023-05-16T09:57:59;6.63;;;1.05;;
46815;SDS011;32787;53.316;8.670;2023-05-16T10:00:31;3.25;;;0.70;;
46815;SDS011;32787;53.316;8.670;2023-05-16T10:02:58;2.53;;;0.70;;
46815;SDS011;32787;53.316;8.670;2023-05-16T10:05:25;4.78;;;0.90;;
46815;SDS011;32787;53.316;8.670;2023-05-16T10:07:53;8.15;;;1.50;;
46815;SDS011;32787;53.316;8.670;2023-05-16T10:10:20;4.97;;;1.05;;
46815;SDS011;32787;53.316;8.670;2023-05-16T10:12:47;7.40;;;0.98;;
46815;SDS011;32787;53.316;8.670;2023-05-16T10:15:13;15.15;;;1.70;;
46815;SDS011;32787;53.316;8.670;2023-05-16T10:17:40;14.20;;;1.38;;
46815;SDS011;32787;53.316;8.670;2023-05-16T10:20:07;9.23;;;1.20;;
46815;SDS011;32787;53.316;8.670;2023-05-16T10:22:35;6.63;;;1.60;;
46815;SDS011;32787;53.316;8.670;2023-05-16T10:25:07;5.00;;;1.20;;
46815;SDS011;32787;53.316;8.670;2023-05-16T10:27:41;8.70;;;1.30;;
46815;SDS011;32787;53.316;8.670;2023-05-16T10:30:07;5.55;;;1.00;;
46815;SDS011;32787;53.316;8.670;2023-05-16T10:32:34;9.45;;;1.73;;
46815;SDS011;32787;53.316;8.670;2023-05-16T10:35:02;7.20;;;1.38;;
46815;SDS011;32787;53.316;8.670;2023-05-16T10:37:29;8.98;;;1.60;;
46815;SDS011;32787;53.316;8.670;2023-05-16T10:39:56;8.13;;;1.45;;
46815;SDS011;32787;53.316;8.670;2023-05-16T10:42:23;10.52;;;1.55;;
46815;SDS011;32787;53.316;8.670;2023-05-16T10:44:52;7.07;;;1.17;;
46815;SDS011;32787;53.316;8.670;2023-05-16T10:47:20;11.38;;;2.00;;
46815;SDS011;32787;53.316;8.670;2023-05-16T10:49:46;9.00;;;1.73;;
46815;SDS011;32787;53.316;8.670;2023-05-16T10:52:12;6.35;;;1.70;;
46815;SDS011;32787;53.316;8.670;2023-05-16T10:54:49;9.05;;;1.70;;
46815;SDS011;32787;53.316;8.670;2023-05-16T10:57:21;9.18;;;1.30;;
46815;SDS011;32787;53.316;8.670;2023-05-16T10:59:48;13.00;;;2.28;;
46815;SDS011;32787;53.316;8.670;2023-05-16T11:04:58;13.20;;;1.65;;
46815;SDS011;32787;53.316;8.670;2023-05-16T11:07:33;7.88;;;1.45;;
46815;SDS011;32787;53.316;8.670;2023-05-16T11:10:01;9.18;;;1.40;;
46815;SDS011;32787;53.316;8.670;2023-05-16T11:12:35;7.95;;;1.45;;
46815;SDS011;32787;53.316;8.670;2023-05-16T11:15:01;9.35;;;1.83;;
46815;SDS011;32787;53.316;8.670;2023-05-16T11:17:45;7.20;;;1.00;;
46815;SDS011;32787;53.316;8.670;2023-05-16T11:20:30;6.32;;;0.98;;
46815;SDS011;32787;53.316;8.670;2023-05-16T11:25:45;6.97;;;1.27;;
46815;SDS011;32787;53.316;8.670;2023-05-16T11:28:15;5.15;;;1.30;;
46815;SDS011;32787;53.316;8.670;2023-05-16T11:30:44;9.43;;;1.30;;
46815;SDS011;32787;53.316;8.670;2023-05-16T11:33:14;7.97;;;1.42;;
46815;SDS011;32787;53.316;8.670;2023-05-16T11:35:40;5.20;;;1.25;;
46815;SDS011;32787;53.316;8.670;2023-05-16T11:38:11;5.60;;;1.13;;
46815;SDS011;32787;53.316;8.670;2023-05-16T11:40:43;4.68;;;1.17;;
46815;SDS011;32787;53.316;8.670;2023-05-16T11:43:08;8.38;;;1.40;;
46815;SDS011;32787;53.316;8.670;2023-05-16T11:45:34;6.00;;;1.30;;
46815;SDS011;32787;53.316;8.670;2023-05-16T11:48:01;9.73;;;1.33;;
46815;SDS011;32787;53.316;8.670;2023-05-16T11:50:32;7.72;;;1.70;;
46815;SDS011;32787;53.316;8.670;2023-05-16T11:52:59;12.05;;;1.40;;
46815;SDS011;32787;53.316;8.670;2023-05-16T11:55:28;8.63;;;1.88;;
46815;SDS011;32787;53.316;8.670;2023-05-16T11:57:55;9.65;;;1.48;;
46815;SDS011;32787;53.316;8.670;2023-05-16T12:00:23;12.27;;;1.70;;
46815;SDS011;32787;53.316;8.670;2023-05-16T12:02:50;10.02;;;1.88;;
46815;SDS011;32787;53.316;8.670;2023-05-16T12:05:18;7.35;;;1.25;;
46815;SDS011;32787;53.316;8.670;2023-05-16T12:07:46;12.30;;;1.65;;
46815;SDS011;32787;53.316;8.670;2023-05-16T12:10:14;8.48;;;1.40;;
46815;SDS011;32787;53.316;8.670;2023-05-16T12:12:41;12.90;;;1.50;;
46815;SDS011;32787;53.316;8.670;2023-05-16T12:15:11;10.35;;;1.48;;
46815;SDS011;32787;53.316;8.670;2023-05-16T12:17:38;4.68;;;1.15;;
46815;SDS011;32787;53.316;8.670;2023-05-16T12:20:05;3.80;;;1.08;;
46815;SDS011;32787;53.316;8.670;2023-05-16T12:22:38;6.95;;;1.55;;
46815;SDS011;32787;53.316;8.670;2023-05-16T12:25:26;7.20;;;1.40;;
46815;SDS011;32787;53.316;8.670;2023-05-16T12:27:55;10.57;;;1.55;;
46815;SDS011;32787;53.316;8.670;2023-05-16T12:30:22;12.00;;;1.70;;
46815;SDS011;32787;53.316;8.670;2023-05-16T12:32:54;10.10;;;1.75;;
46815;SDS011;32787;53.316;8.670;2023-05-16T12:35:33;14.77;;;1.90;;
46815;SDS011;32787;53.316;8.670;2023-05-16T12:38:05;10.25;;;1.80;;
46815;SDS011;32787;53.316;8.670;2023-05-16T12:40:32;7.85;;;1.58;;
46815;SDS011;32787;53.316;8.670;2023-05-16T12:42:57;8.25;;;1.30;;
46815;SDS011;32787;53.316;8.670;2023-05-16T12:45:24;13.48;;;1.75;;
46815;SDS011;32787;53.316;8.670;2023-05-16T12:47:51;9.13;;;1.70;;
46815;SDS011;32787;53.316;8.670;2023-05-16T12:50:17;12.45;;;1.75;;
46815;SDS011;32787;53.316;8.670;2023-05-16T12:52:49;8.85;;;1.73;;
46815;SDS011;32787;53.316;8.670;2023-05-16T12:55:16;10.23;;;1.90;;
46815;SDS011;32787;53.316;8.670;2023-05-16T12:57:43;11.57;;;1.70;;
46815;SDS011;32787;53.316;8.670;2023-05-16T13:00:11;12.23;;;1.73;;
46815;SDS011;32787;53.316;8.670;2023-05-16T13:02:39;14.68;;;1.92;;
46815;SDS011;32787;53.316;8.670;2023-05-16T13:05:05;10.77;;;1.75;;
46815;SDS011;32787;53.316;8.670;2023-05-16T13:07:34;12.25;;;1.88;;
46815;SDS011;32787;53.316;8.670;2023-05-16T13:10:00;11.25;;;1.85;;
46815;SDS011;32787;53.316;8.670;2023-05-16T13:12:26;13.48;;;1.80;;
46815;SDS011;32787;53.316;8.670;2023-05-16T13:14:52;9.00;;;1.75;;
46815;SDS011;32787;53.316;8.670;2023-05-16T13:17:18;12.98;;;1.90;;
46815;SDS011;32787;53.316;8.670;2023-05-16T13:19:43;11.27;;;1.80;;
46815;SDS011;32787;53.316;8.670;2023-05-16T13:22:10;13.32;;;1.70;;
46815;SDS011;32787;53.316;8.670;2023-05-16T13:24:35;10.57;;;2.08;;
46815;SDS011;32787;53.316;8.670;2023-05-16T13:27:01;11.18;;;1.52;;
46815;SDS011;32787;53.316;8.670;2023-05-16T13:29:27;15.52;;;1.73;;
46815;SDS011;32787;53.316;8.670;2023-05-16T13:31:52;13.30;;;2.00;;
46815;SDS011;32787;53.316;8.670;2023-05-16T13:34:18;11.73;;;1.50;;
46815;SDS011;32787;53.316;8.670;2023-05-16T13:36:44;8.40;;;1.30;;
46815;SDS011;32787;53.316;8.670;2023-05-16T13:39:11;8.75;;;1.73;;
46815;SDS011;32787;53.316;8.670;2023-05-16T13:41:37;8.80;;;1.52;;
46815;SDS011;32787;53.316;8.670;2023-05-16T13:44:04;10.40;;;1.30;;
46815;SDS011;32787;53.316;8.670;2023-05-16T13:46:30;11.77;;;1.80;;
46815;SDS011;32787;53.316;8.670;2023-05-16T13:48:56;8.05;;;1.20;;
46815;SDS011;32787;53.316;8.670;2023-05-16T13:51:21;8.10;;;1.42;;
46815;SDS011;32787;53.316;8.670;2023-05-16T13:53:47;9.65;;;1.65;;
46815;SDS011;32787;53.316;8.670;2023-05-16T13:56:13;7.80;;;1.52;;
46815;SDS011;32787;53.316;8.670;2023-05-16T13:58:38;6.68;;;1.30;;
46815;SDS011;32787;53.316;8.670;2023-05-16T14:01:04;10.07;;;1.52;;
46815;SDS011;32787;53.316;8.670;2023-05-16T14:03:30;9.25;;;1.55;;
46815;SDS011;32787;53.316;8.670;2023-05-16T14:05:56;9.45;;;1.67;;
46815;SDS011;32787;53.316;8.670;2023-05-16T14:08:21;9.45;;;1.70;;
46815;SDS011;32787;53.316;8.670;2023-05-16T14:10:47;11.48;;;1.85;;
46815;SDS011;32787;53.316;8.670;2023-05-16T14:13:13;9.90;;;1.83;;
46815;SDS011;32787;53.316;8.670;2023-05-16T14:15:38;9.23;;;1.75;;
46815;SDS011;32787;53.316;8.670;2023-05-16T14:18:04;11.95;;;1.75;;
46815;SDS011;32787;53.316;8.670;2023-05-16T14:20:30;7.85;;;1.63;;
46815;SDS011;32787;53.316;8.670;2023-05-16T14:22:55;9.95;;;1.83;;
46815;SDS011;32787;53.316;8.670;2023-05-16T14:25:21;11.50;;;1.83;;
46815;SDS011;32787;53.316;8.670;2023-05-16T14:27:47;10.20;;;2.25;;
46815;SDS011;32787;53.316;8.670;2023-05-16T14:30:14;10.05;;;1.85;;
46815;SDS011;32787;53.316;8.670;2023-05-16T14:32:40;8.05;;;1.50;;
46815;SDS011;32787;53.316;8.670;2023-05-16T14:35:06;11.50;;;2.20;;
46815;SDS011;32787;53.316;8.670;2023-05-16T14:37:33;10.55;;;2.25;;
46815;SDS011;32787;53.316;8.670;2023-05-16T14:39:59;11.00;;;1.98;;
46815;SDS011;32787;53.316;8.670;2023-05-16T14:42:25;12.20;;;1.95;;
46815;SDS011;32787;53.316;8.670;2023-05-16T14:44:50;9.15;;;1.70;;
46815;SDS011;32787;53.316;8.670;2023-05-16T14:47:16;10.68;;;2.40;;
46815;SDS011;32787;53.316;8.670;2023-05-16T14:49:42;10.60;;;2.17;;
46815;SDS011;32787;53.316;8.670;2023-05-16T14:52:07;7.38;;;1.85;;
46815;SDS011;32787;53.316;8.670;2023-05-16T14:54:33;10.50;;;2.17;;
46815;SDS011;32787;53.316;8.670;2023-05-16T14:56:59;12.75;;;2.60;;